Time;durP1;ratioP1;P1;durP2;ratioP2;P2;SDS_P1;SDS_P2;PMS_P1;PMS_P2;Temp;Humidity;BMP_temperature;BMP_pressure;BME280_temperature;BME280_humidity;BME280_pressure;Samples;Min_cycle;Max_cycle;Signal;HPM_P1;HPM_P2
2022/04/05 00:01:23;;;;;;;11.53;6.83;;;6.80;99.90;;;;;;5096490;28;20210;-76
2022/04/05 00:03:50;;;;;;;12.37;7.10;;;6.80;99.90;;;;;;5099164;28;20197;-77
2022/04/05 00:06:18;;;;;;;10.90;6.77;;;6.80;99.90;;;;;;5094889;28;20224;-77
2022/04/05 00:08:45;;;;;;;10.60;6.30;;;6.80;99.90;;;;;;5097366;28;20204;-77
2022/04/05 00:11:12;;;;;;;10.20;6.33;;;6.80;99.90;;;;;;5097108;28;20633;-77
2022/04/05 00:13:39;;;;;;;11.87;6.73;;;6.80;99.90;;;;;;5097477;28;20212;-76
2022/04/05 00:16:06;;;;;;;12.87;7.37;;;6.80;99.90;;;;;;5102986;28;20651;-76
2022/04/05 00:18:33;;;;;;;10.30;6.43;;;6.80;99.90;;;;;;5093724;28;20198;-76
2022/04/05 00:21:00;;;;;;;10.50;6.03;;;6.70;99.90;;;;;;5090635;28;20601;-76
2022/04/05 00:23:28;;;;;;;9.80;5.70;;;6.70;99.90;;;;;;5094791;28;20206;-77
2022/04/05 00:25:56;;;;;;;9.13;5.73;;;6.80;99.90;;;;;;5097682;28;20569;-76
2022/04/05 00:28:23;;;;;;;7.20;4.97;;;6.80;99.90;;;;;;5093144;28;20205;-77
2022/04/05 00:30:50;;;;;;;9.00;5.40;;;6.80;99.90;;;;;;5101246;28;20205;-76
2022/04/05 00:33:17;;;;;;;10.13;5.53;;;6.70;99.90;;;;;;5095687;28;20687;-77
2022/04/05 00:35:44;;;;;;;8.87;5.53;;;6.80;99.90;;;;;;5095074;28;20202;-76
2022/04/05 00:38:11;;;;;;;7.67;4.97;;;6.80;99.90;;;;;;5095544;28;20284;-76
2022/04/05 00:40:39;;;;;;;7.93;4.93;;;6.80;99.90;;;;;;5094324;28;20225;-76
2022/04/05 00:43:06;;;;;;;8.23;5.13;;;6.80;99.90;;;;;;5095907;28;20201;-76
2022/04/05 00:45:33;;;;;;;6.10;4.13;;;6.80;99.90;;;;;;5096081;28;20201;-76
2022/04/05 00:48:02;;;;;;;5.97;3.97;;;6.80;99.90;;;;;;5096873;28;20205;-76
2022/04/05 00:50:33;;;;;;;7.47;5.10;;;6.80;99.90;;;;;;5090158;28;20194;-77
2022/04/05 00:53:03;;;;;;;7.20;4.00;;;6.80;99.90;;;;;;5094078;28;20690;-76
2022/04/05 00:55:32;;;;;;;6.60;4.00;;;6.90;99.90;;;;;;5094145;28;20248;-76
2022/04/05 00:58:02;;;;;;;5.17;3.83;;;6.90;99.90;;;;;;5095978;28;20201;-76
2022/04/05 01:00:29;;;;;;;5.83;3.37;;;6.80;99.90;;;;;;5095643;28;20225;-76
2022/04/05 01:02:59;;;;;;;5.00;3.47;;;6.80;99.90;;;;;;5101486;28;20205;-76
2022/04/05 01:05:28;;;;;;;3.97;2.70;;;6.80;99.90;;;;;;5089873;28;20575;-76
2022/04/05 01:08:02;;;;;;;3.70;2.97;;;6.80;99.90;;;;;;5093374;28;20652;-76
2022/04/05 01:10:30;;;;;;;2.63;2.13;;;6.70;99.90;;;;;;5093561;28;20213;-76
2022/04/05 01:12:57;;;;;;;2.53;2.00;;;6.70;99.90;;;;;;5096700;28;20644;-76
2022/04/05 01:15:26;;;;;;;2.57;1.97;;;6.70;99.90;;;;;;5097577;28;20206;-76
2022/04/05 01:17:55;;;;;;;1.67;1.57;;;6.70;99.90;;;;;;5098515;28;20209;-76
2022/04/05 01:20:23;;;;;;;1.57;1.47;;;6.60;99.90;;;;;;5092203;28;20249;-76
2022/04/05 01:22:50;;;;;;;2.40;1.33;;;6.60;99.90;;;;;;5092202;28;20627;-76
2022/04/05 01:25:20;;;;;;;1.00;1.00;;;6.60;99.90;;;;;;5093997;28;20208;-76
2022/04/05 01:27:48;;;;;;;3.87;1.20;;;6.50;99.90;;;;;;5093791;28;20212;-76
2022/04/05 01:30:15;;;;;;;0.80;0.80;;;6.50;99.90;;;;;;5095025;28;20221;-76
2022/04/05 01:32:42;;;;;;;1.03;0.70;;;6.50;99.90;;;;;;5096051;28;20565;-76
2022/04/05 01:35:09;;;;;;;0.63;0.63;;;6.50;99.90;;;;;;5092389;28;20205;-75
2022/04/05 01:37:37;;;;;;;0.67;0.67;;;6.50;99.90;;;;;;5092706;28;20284;-75
2022/04/05 01:40:04;;;;;;;0.47;0.47;;;6.40;99.90;;;;;;5091695;28;20214;-76
2022/04/05 01:42:33;;;;;;;0.97;0.90;;;6.40;99.90;;;;;;5094551;28;20641;-76
2022/04/05 01:45:00;;;;;;;0.83;0.60;;;6.40;99.90;;;;;;5092086;28;20678;-75
2022/04/05 01:47:27;;;;;;;1.50;0.70;;;6.40;99.90;;;;;;5099683;28;20773;-75
2022/04/05 01:49:54;;;;;;;0.70;0.60;;;6.40;99.90;;;;;;5090377;28;20671;-76
2022/04/05 01:52:21;;;;;;;1.13;0.60;;;6.40;99.90;;;;;;5092446;28;20212;-76
2022/04/05 01:54:48;;;;;;;0.60;0.60;;;6.40;99.90;;;;;;5092784;28;20202;-75
2022/04/05 01:57:15;;;;;;;1.03;0.70;;;6.40;99.90;;;;;;5093794;28;20201;-76
2022/04/05 01:59:44;;;;;;;0.60;0.50;;;6.30;99.90;;;;;;5092145;28;20208;-76
2022/04/05 02:02:12;;;;;;;1.43;0.90;;;6.30;99.90;;;;;;5099941;28;20197;-76
2022/04/05 02:04:40;;;;;;;0.70;0.70;;;6.40;99.90;;;;;;5110483;28;20194;-75
2022/04/05 02:07:12;;;;;;;0.63;0.63;;;6.30;99.90;;;;;;5093977;28;20490;-76
2022/04/05 02:09:39;;;;;;;0.93;0.83;;;6.30;99.90;;;;;;5092828;28;20716;-76
2022/04/05 02:12:09;;;;;;;0.97;0.80;;;6.30;99.90;;;;;;5093069;28;20201;-75
2022/04/05 02:14:37;;;;;;;1.53;0.90;;;6.40;99.90;;;;;;5091315;28;20233;-76
2022/04/05 02:17:05;;;;;;;0.77;0.77;;;6.40;99.90;;;;;;5103432;28;20197;-76
2022/04/05 02:19:32;;;;;;;0.70;0.70;;;6.40;99.90;;;;;;5097150;28;20201;-76
2022/04/05 02:21:59;;;;;;;0.90;0.90;;;6.40;99.90;;;;;;5099882;28;20209;-75
2022/04/05 02:24:26;;;;;;;0.83;0.83;;;6.40;99.90;;;;;;5093413;28;20208;-75
2022/04/05 02:26:53;;;;;;;2.10;1.10;;;6.40;99.90;;;;;;5091979;28;20289;-75
2022/04/05 02:29:20;;;;;;;1.10;1.00;;;6.50;99.90;;;;;;5092553;28;20593;-75
2022/04/05 02:31:47;;;;;;;1.17;1.07;;;6.50;99.90;;;;;;5097692;28;20220;-76
2022/04/05 02:34:15;;;;;;;1.30;0.97;;;6.50;99.90;;;;;;5094183;28;20209;-76
2022/04/05 02:36:42;;;;;;;1.00;1.00;;;6.50;99.90;;;;;;5093208;28;20224;-76
2022/04/05 02:39:09;;;;;;;1.63;1.27;;;6.50;99.90;;;;;;5092285;28;20209;-76
2022/04/05 02:41:36;;;;;;;1.47;1.37;;;6.50;99.90;;;;;;5091860;28;20218;-76
2022/04/05 02:44:03;;;;;;;1.50;1.40;;;6.50;99.90;;;;;;5091300;28;20198;-76
2022/04/05 02:46:30;;;;;;;1.87;1.43;;;6.50;99.90;;;;;;5092175;28;20198;-76
2022/04/05 02:48:57;;;;;;;2.77;1.50;;;6.50;99.90;;;;;;5091291;28;20289;-76
2022/04/05 02:51:25;;;;;;;1.63;1.50;;;6.50;99.90;;;;;;5093853;28;20205;-76
2022/04/05 02:53:52;;;;;;;1.67;1.50;;;6.50;99.90;;;;;;5099702;28;20663;-76
2022/04/05 02:56:22;;;;;;;2.03;1.87;;;6.50;99.90;;;;;;5091722;28;20202;-76
2022/04/05 02:58:48;;;;;;;2.83;1.90;;;6.50;99.90;;;;;;5090869;28;20251;-76
2022/04/05 03:01:16;;;;;;;2.20;1.87;;;6.50;99.90;;;;;;5095081;28;20209;-76
2022/04/05 03:03:43;;;;;;;2.00;1.80;;;6.50;99.90;;;;;;5099986;28;20611;-76
2022/04/05 03:06:11;;;;;;;4.47;1.97;;;6.50;99.90;;;;;;5097663;28;20194;-76
2022/04/05 03:08:40;;;;;;;1.97;1.80;;;6.50;99.90;;;;;;5091374;28;20244;-76
2022/04/05 03:11:08;;;;;;;2.03;1.77;;;6.50;99.90;;;;;;5092115;28;20219;-76
2022/04/05 03:13:35;;;;;;;2.07;1.87;;;6.50;99.90;;;;;;5091106;28;20546;-75
2022/04/05 03:16:02;;;;;;;2.03;1.63;;;6.60;99.90;;;;;;5091354;28;20193;-75
2022/04/05 03:18:29;;;;;;;3.60;1.83;;;6.60;99.90;;;;;;5089002;28;20210;-75
2022/04/05 03:20:56;;;;;;;2.10;1.90;;;6.60;99.90;;;;;;5090613;28;20221;-76
2022/04/05 03:23:26;;;;;;;2.77;1.93;;;6.60;99.90;;;;;;5093001;28;20197;-76
2022/04/05 03:25:55;;;;;;;3.73;1.93;;;6.60;99.90;;;;;;5091860;28;20232;-75
2022/04/05 03:28:21;;;;;;;3.73;2.07;;;6.60;99.90;;;;;;5089846;28;20206;-75
2022/04/05 03:30:48;;;;;;;1.80;1.70;;;6.60;99.90;;;;;;5091770;28;20189;-75
2022/04/05 03:33:16;;;;;;;1.80;1.70;;;6.60;99.90;;;;;;5091442;28;20659;-76
2022/04/05 03:35:43;;;;;;;2.43;1.90;;;6.60;99.90;;;;;;5091232;28;20205;-75
2022/04/05 03:38:10;;;;;;;5.93;1.97;;;6.60;99.90;;;;;;5089096;28;20193;-75
2022/04/05 03:40:37;;;;;;;1.83;1.67;;;6.60;99.90;;;;;;5092108;28;20226;-75
2022/04/05 03:43:07;;;;;;;2.67;1.70;;;6.70;99.90;;;;;;5095339;28;20683;-75
2022/04/05 03:45:34;;;;;;;2.37;2.17;;;6.70;99.90;;;;;;5091871;28;20209;-75
2022/04/05 03:48:01;;;;;;;4.70;2.27;;;6.70;99.90;;;;;;5094430;28;20200;-75
2022/04/05 03:50:28;;;;;;;4.10;1.67;;;6.70;99.90;;;;;;5090127;28;20201;-75
2022/04/05 03:52:57;;;;;;;3.47;1.63;;;6.70;99.90;;;;;;5091307;28;20276;-75
2022/04/05 03:55:24;;;;;;;4.30;2.00;;;6.70;99.90;;;;;;5091240;28;20197;-75
2022/04/05 03:57:51;;;;;;;2.80;1.63;;;6.70;99.90;;;;;;5091596;28;20640;-75
2022/04/05 04:00:20;;;;;;;1.70;1.60;;;6.70;99.90;;;;;;5091794;28;20205;-75
2022/04/05 04:02:46;;;;;;;3.57;2.17;;;6.70;99.90;;;;;;5093107;28;20205;-74
2022/04/05 04:05:17;;;;;;;3.30;2.07;;;6.70;99.90;;;;;;5109855;28;20192;-74
2022/04/05 04:07:44;;;;;;;4.73;2.20;;;6.80;99.90;;;;;;5102462;28;20198;-74
2022/04/05 04:10:11;;;;;;;4.70;2.30;;;6.80;99.90;;;;;;5070042;28;20248;-74
2022/04/05 04:12:38;;;;;;;3.87;2.20;;;6.80;99.90;;;;;;5087552;28;20186;-74
2022/04/05 04:15:06;;;;;;;6.10;2.33;;;6.80;99.90;;;;;;5095767;28;20571;-74
2022/04/05 04:17:35;;;;;;;4.27;2.20;;;6.80;99.90;;;;;;5088892;28;20649;-74
2022/04/05 04:20:02;;;;;;;4.57;2.10;;;6.80;99.90;;;;;;5088838;28;20242;-74
2022/04/05 04:22:29;;;;;;;6.23;3.20;;;6.80;99.90;;;;;;5090865;28;20218;-74
2022/04/05 04:24:57;;;;;;;5.03;2.50;;;6.80;99.90;;;;;;5111319;28;20185;-74
2022/04/05 04:27:25;;;;;;;5.20;2.53;;;6.80;99.90;;;;;;5102333;28;20610;-74
2022/04/05 04:29:51;;;;;;;4.40;2.23;;;6.80;99.90;;;;;;5091689;28;20198;-74
2022/04/05 04:32:18;;;;;;;4.37;2.67;;;6.80;99.90;;;;;;5090886;28;20186;-74
2022/04/05 04:34:46;;;;;;;5.73;2.80;;;6.70;99.90;;;;;;5107617;28;20201;-74
2022/04/05 04:37:14;;;;;;;6.87;2.93;;;6.70;99.90;;;;;;5101766;28;20194;-74
2022/04/05 04:39:44;;;;;;;4.87;2.47;;;6.70;99.90;;;;;;5093584;28;20559;-74
2022/04/05 04:42:12;;;;;;;4.70;2.43;;;6.70;99.90;;;;;;5095043;28;20221;-74
2022/04/05 04:44:39;;;;;;;3.97;2.87;;;6.80;99.90;;;;;;5113176;28;20197;-74
2022/04/05 04:47:07;;;;;;;3.03;2.40;;;6.80;99.90;;;;;;5105462;28;20209;-74
2022/04/05 04:49:34;;;;;;;7.50;3.17;;;6.80;99.90;;;;;;5103610;28;20205;-74
2022/04/05 04:52:02;;;;;;;5.07;2.87;;;6.80;99.90;;;;;;5094952;28;20201;-74
2022/04/05 04:54:29;;;;;;;6.50;2.73;;;6.80;99.90;;;;;;5095062;28;20198;-74
2022/04/05 04:56:56;;;;;;;5.00;2.67;;;6.80;99.90;;;;;;5095494;28;20296;-74
2022/04/05 04:59:23;;;;;;;4.67;2.93;;;6.80;99.90;;;;;;5093515;28;20205;-74
2022/04/05 05:01:50;;;;;;;6.83;3.50;;;6.90;99.90;;;;;;5094631;28;20300;-74
2022/04/05 05:04:16;;;;;;;7.80;2.80;;;6.90;99.90;;;;;;5087804;28;20661;-74
2022/04/05 05:06:43;;;;;;;5.97;2.97;;;6.90;99.90;;;;;;5094395;28;20190;-74
2022/04/05 05:09:11;;;;;;;8.47;2.90;;;6.90;99.90;;;;;;5093893;28;20680;-74
2022/04/05 05:11:38;;;;;;;6.50;3.07;;;7.00;99.90;;;;;;5077606;28;20198;-74
2022/04/05 05:14:05;;;;;;;5.10;2.53;;;7.00;99.90;;;;;;5093527;28;20357;-74
2022/04/05 05:16:33;;;;;;;5.97;2.50;;;7.00;99.90;;;;;;5094386;28;20213;-74
2022/04/05 05:19:00;;;;;;;4.70;3.00;;;7.00;99.90;;;;;;5084847;28;20198;-74
2022/04/05 05:21:27;;;;;;;5.20;2.87;;;7.00;99.90;;;;;;5092880;28;20228;-74
2022/04/05 05:23:54;;;;;;;11.03;3.20;;;7.00;99.90;;;;;;5094157;28;20189;-74
2022/04/05 05:26:22;;;;;;;5.93;2.57;;;7.00;99.90;;;;;;5093792;28;20212;-74
2022/04/05 05:28:49;;;;;;;6.43;2.90;;;7.00;99.90;;;;;;5094051;28;20687;-74
2022/04/05 05:31:16;;;;;;;8.53;3.87;;;7.00;99.90;;;;;;5093235;28;20198;-74
2022/04/05 05:33:43;;;;;;;6.73;2.70;;;7.00;99.90;;;;;;5093841;28;20193;-74
2022/04/05 05:36:09;;;;;;;9.47;3.30;;;7.00;99.90;;;;;;5089822;28;20668;-74
2022/04/05 05:38:36;;;;;;;7.20;3.20;;;6.90;99.90;;;;;;5092864;28;20297;-74
2022/04/05 05:41:04;;;;;;;5.73;2.87;;;7.00;99.90;;;;;;5093217;28;20217;-74
2022/04/05 05:43:33;;;;;;;5.57;2.80;;;7.00;99.90;;;;;;5093610;28;20206;-74
2022/04/05 05:46:03;;;;;;;5.83;3.60;;;7.00;99.90;;;;;;5075462;28;20213;-73
2022/04/05 05:48:30;;;;;;;5.27;2.80;;;7.10;99.90;;;;;;5093056;28;20215;-74
2022/04/05 05:50:56;;;;;;;9.77;3.10;;;7.10;99.90;;;;;;5078889;28;20198;-74
2022/04/05 05:53:24;;;;;;;6.37;3.43;;;7.10;99.90;;;;;;5082992;28;20206;-75
2022/04/05 05:55:51;;;;;;;10.17;3.03;;;7.10;99.90;;;;;;5093327;28;20270;-75
2022/04/05 05:58:18;;;;;;;7.37;3.53;;;7.00;99.90;;;;;;5092624;28;20498;-75
2022/04/05 06:00:46;;;;;;;7.77;2.50;;;6.90;99.90;;;;;;5073780;28;20222;-75
2022/04/05 06:03:13;;;;;;;8.77;3.53;;;6.80;99.90;;;;;;5080549;28;20221;-75
2022/04/05 06:05:39;;;;;;;7.37;2.73;;;6.70;99.90;;;;;;5092329;28;20220;-76
2022/04/05 06:08:07;;;;;;;9.57;2.67;;;6.60;99.90;;;;;;5093526;28;20208;-75
2022/04/05 06:10:34;;;;;;;5.93;2.80;;;6.60;99.90;;;;;;5093504;28;20198;-76
2022/04/05 06:13:01;;;;;;;10.57;2.97;;;6.60;99.90;;;;;;5092547;28;20198;-75
2022/04/05 06:15:29;;;;;;;6.20;2.33;;;6.60;99.90;;;;;;5090850;28;20691;-75
2022/04/05 06:17:58;;;;;;;9.27;2.83;;;6.60;99.90;;;;;;5092176;28;20201;-75
2022/04/05 06:20:26;;;;;;;6.20;3.07;;;6.60;99.90;;;;;;5091270;28;20197;-75
2022/04/05 06:22:55;;;;;;;9.67;3.23;;;6.60;99.90;;;;;;5092432;28;20221;-75
2022/04/05 06:25:24;;;;;;;5.40;2.73;;;6.60;99.90;;;;;;5092595;28;20201;-75
2022/04/05 06:27:52;;;;;;;6.40;3.07;;;6.60;99.90;;;;;;5092634;28;20194;-78
2022/04/05 06:30:19;;;;;;;8.30;3.87;;;6.60;99.90;;;;;;5092783;28;20217;-78
2022/04/05 06:32:46;;;;;;;5.63;2.73;;;6.60;99.90;;;;;;5092389;28;20657;-78
2022/04/05 06:35:15;;;;;;;8.23;2.70;;;6.60;99.90;;;;;;5092583;28;20198;-78
2022/04/05 06:37:44;;;;;;;9.20;2.70;;;6.60;99.90;;;;;;5092312;28;20554;-78
2022/04/05 06:40:13;;;;;;;7.33;2.90;;;6.50;99.90;;;;;;5091915;28;20713;-78
2022/04/05 06:42:43;;;;;;;7.73;2.80;;;6.60;99.90;;;;;;5093019;28;20232;-78
2022/04/05 06:45:12;;;;;;;7.37;2.70;;;6.60;99.90;;;;;;5092354;28;20257;-78
2022/04/05 06:47:39;;;;;;;9.00;2.93;;;6.60;99.90;;;;;;5094343;28;20577;-78
2022/04/05 06:50:08;;;;;;;8.00;3.07;;;6.60;99.90;;;;;;5108720;28;20193;-78
2022/04/05 06:52:37;;;;;;;8.03;2.53;;;6.60;99.90;;;;;;5102128;28;20193;-78
2022/04/05 06:55:05;;;;;;;8.63;2.70;;;6.60;99.90;;;;;;5110330;28;20201;-78
2022/04/05 06:57:31;;;;;;;5.93;2.30;;;6.70;99.90;;;;;;5092219;28;20228;-78
2022/04/05 06:59:58;;;;;;;7.50;1.87;;;6.70;99.90;;;;;;5079711;28;20225;-78
2022/04/05 07:02:25;;;;;;;5.13;2.30;;;6.60;99.90;;;;;;5072096;28;20215;-78
2022/04/05 07:04:52;;;;;;;9.03;2.30;;;6.70;99.90;;;;;;5091594;28;20198;-78
2022/04/05 07:07:19;;;;;;;4.77;2.17;;;6.60;99.90;;;;;;5071539;28;20213;-78
2022/04/05 07:09:47;;;;;;;5.53;2.10;;;6.70;99.90;;;;;;5072219;28;20214;-78
2022/04/05 07:12:14;;;;;;;8.13;2.60;;;6.60;99.90;;;;;;5071875;28;20194;-79
2022/04/05 07:14:41;;;;;;;7.60;1.93;;;6.60;99.90;;;;;;5092578;28;20289;-79
2022/04/05 07:17:08;;;;;;;6.93;1.77;;;6.60;99.90;;;;;;5072564;28;20210;-78
2022/04/05 07:19:34;;;;;;;4.10;1.67;;;6.60;99.90;;;;;;5090302;28;20209;-79
2022/04/05 07:22:02;;;;;;;4.43;1.60;;;6.60;99.90;;;;;;5087314;28;20206;-78
2022/04/05 07:24:28;;;;;;;7.60;2.33;;;6.60;99.90;;;;;;5092519;28;20296;-78
2022/04/05 07:26:57;;;;;;;4.17;2.37;;;6.70;99.90;;;;;;5077542;28;20281;-78
2022/04/05 07:29:24;;;;;;;5.60;2.10;;;6.70;99.90;;;;;;5089177;28;20217;-78
2022/04/05 07:31:50;;;;;;;6.63;2.13;;;6.70;99.90;;;;;;5112374;28;20209;-78
2022/04/05 07:34:17;;;;;;;6.03;2.07;;;6.80;99.90;;;;;;5111827;28;20201;-78
2022/04/05 07:36:44;;;;;;;7.97;2.40;;;6.90;99.90;;;;;;5096888;28;20197;-78
2022/04/05 07:39:11;;;;;;;6.03;2.47;;;7.00;99.90;;;;;;5090652;28;20217;-78
2022/04/05 07:41:38;;;;;;;8.13;3.10;;;7.00;99.90;;;;;;5091345;28;20205;-78
2022/04/05 07:44:07;;;;;;;6.33;2.90;;;7.00;99.90;;;;;;5092091;28;20623;-78
2022/04/05 07:46:35;;;;;;;9.80;2.90;;;7.00;99.90;;;;;;5082654;28;20194;-78
2022/04/05 07:49:02;;;;;;;6.47;2.50;;;7.00;99.90;;;;;;5071360;28;20191;-78
2022/04/05 07:51:28;;;;;;;11.57;3.10;;;7.00;99.90;;;;;;5082292;28;20202;-78
2022/04/05 07:53:56;;;;;;;8.63;2.93;;;7.10;99.90;;;;;;5091376;28;20201;-78
2022/04/05 07:56:23;;;;;;;10.20;3.53;;;7.10;99.90;;;;;;5086835;28;20224;-78
2022/04/05 07:58:50;;;;;;;9.17;3.90;;;7.10;99.90;;;;;;5070834;28;20570;-78
2022/04/05 08:01:19;;;;;;;9.90;3.10;;;7.10;99.90;;;;;;5096636;28;20197;-78
2022/04/05 08:03:46;;;;;;;10.30;2.97;;;7.20;99.90;;;;;;5092861;28;20217;-78
2022/04/05 08:06:13;;;;;;;6.07;3.10;;;7.30;99.90;;;;;;5098556;28;20188;-78
2022/04/05 08:08:39;;;;;;;6.20;3.33;;;7.40;99.90;;;;;;5093674;28;20197;-78
2022/04/05 08:11:06;;;;;;;7.03;3.80;;;7.50;99.90;;;;;;5092279;28;20719;-78
2022/04/05 08:13:33;;;;;;;4.90;3.10;;;7.50;99.90;;;;;;5093702;28;20211;-78
2022/04/05 08:16:00;;;;;;;8.10;2.60;;;7.50;99.90;;;;;;5095045;28;20201;-78
2022/04/05 08:18:28;;;;;;;10.00;3.23;;;7.60;99.90;;;;;;5096288;28;20197;-78
2022/04/05 08:20:55;;;;;;;9.17;3.70;;;7.60;99.90;;;;;;5094671;28;20212;-78
2022/04/05 08:23:22;;;;;;;9.57;3.47;;;7.60;99.90;;;;;;5095082;28;20248;-78
2022/04/05 08:25:49;;;;;;;11.83;3.47;;;7.60;99.90;;;;;;5095185;28;20212;-78
2022/04/05 08:28:16;;;;;;;8.83;2.80;;;7.50;99.90;;;;;;5094713;28;20205;-78
2022/04/05 08:30:43;;;;;;;8.13;3.50;;;7.60;99.90;;;;;;5095385;28;20672;-78
2022/04/05 08:33:10;;;;;;;6.00;2.90;;;7.60;99.90;;;;;;5095322;28;20198;-78
2022/04/05 08:35:39;;;;;;;8.93;2.80;;;7.50;99.90;;;;;;5095045;28;20189;-78
2022/04/05 08:38:07;;;;;;;5.87;2.17;;;7.60;99.90;;;;;;5095251;28;20644;-78
2022/04/05 08:40:34;;;;;;;9.07;2.53;;;7.80;99.90;;;;;;5095303;28;20261;-78
2022/04/05 08:43:00;;;;;;;6.80;1.80;;;7.90;99.90;;;;;;5094257;28;20228;-78
2022/04/05 08:45:28;;;;;;;6.67;1.77;;;7.90;99.90;;;;;;5095841;28;20568;-78
2022/04/05 08:47:57;;;;;;;5.50;2.17;;;7.80;99.90;;;;;;5095088;28;20216;-78
2022/04/05 08:50:26;;;;;;;6.40;1.73;;;7.90;99.90;;;;;;5094638;28;20198;-78
2022/04/05 08:52:55;;;;;;;10.53;2.07;;;7.90;99.90;;;;;;5094813;28;20655;-78
2022/04/05 08:55:23;;;;;;;7.13;2.00;;;8.00;99.90;;;;;;5095400;28;20683;-78
2022/04/05 08:57:50;;;;;;;6.13;1.70;;;8.10;99.90;;;;;;5094674;28;20217;-78
2022/04/05 09:00:19;;;;;;;8.47;1.90;;;8.20;99.90;;;;;;5095007;28;20564;-77
2022/04/05 09:02:55;;;;;;;9.33;2.23;;;8.20;99.90;;;;;;5094352;28;20570;-78
2022/04/05 09:05:29;;;;;;;6.03;2.37;;;8.50;99.90;;;;;;5095030;28;20205;-78
2022/04/05 09:08:17;;;;;;;7.83;1.80;;;8.70;99.90;;;;;;5094911;28;20209;-78
2022/04/05 09:10:45;;;;;;;9.80;2.37;;;8.60;99.90;;;;;;5101931;28;20300;-78
2022/04/05 09:13:13;;;;;;;6.60;2.10;;;8.60;99.90;;;;;;5114905;28;20193;-78
2022/04/05 09:15:42;;;;;;;4.33;1.90;;;8.70;99.90;;;;;;5113643;28;20244;-77
2022/04/05 09:18:09;;;;;;;8.33;1.90;;;8.60;99.90;;;;;;5093756;28;20205;-77
2022/04/05 09:20:47;;;;;;;7.07;1.90;;;8.60;99.90;;;;;;5094188;28;20204;-78
2022/04/05 09:23:26;;;;;;;8.07;2.20;;;8.50;99.90;;;;;;5085064;28;20213;-78
2022/04/05 09:25:58;;;;;;;8.37;2.10;;;8.30;99.90;;;;;;5093176;28;20205;-78
2022/04/05 09:28:30;;;;;;;9.53;2.93;;;8.40;99.90;;;;;;5093863;28;20251;-76
2022/04/05 09:30:59;;;;;;;14.90;3.50;;;8.30;99.90;;;;;;5094545;28;20208;-78
2022/04/05 09:33:28;;;;;;;6.17;2.20;;;8.10;99.90;;;;;;5093837;28;20198;-78
2022/04/05 09:36:08;;;;;;;5.90;2.33;;;8.20;99.90;;;;;;5090289;28;20682;-78
2022/04/05 09:38:37;;;;;;;9.70;3.23;;;8.30;99.90;;;;;;5090603;28;20204;-78
2022/04/05 09:41:20;;;;;;;7.13;2.47;;;8.40;99.90;;;;;;5092394;28;20219;-78
2022/04/05 09:43:55;;;;;;;11.33;3.60;;;8.50;99.90;;;;;;5092123;28;20248;-78
2022/04/05 09:46:22;;;;;;;7.43;2.97;;;8.60;99.90;;;;;;5093023;28;20394;-78
2022/04/05 09:49:02;;;;;;;11.03;3.20;;;8.30;99.90;;;;;;5092259;28;20213;-78
2022/04/05 09:51:34;;;;;;;11.07;3.10;;;8.40;99.90;;;;;;5092075;28;20201;-78
2022/04/05 09:54:03;;;;;;;7.30;3.53;;;8.50;99.90;;;;;;5092614;28;20285;-78
2022/04/05 09:56:32;;;;;;;9.00;3.73;;;8.60;99.90;;;;;;5093031;28;20205;-79
2022/04/05 09:59:03;;;;;;;7.03;2.93;;;8.50;99.90;;;;;;5092482;28;20233;-78
2022/04/05 10:01:31;;;;;;;7.07;2.37;;;8.60;99.90;;;;;;5092493;28;20259;-79
2022/04/05 10:04:01;;;;;;;8.50;2.70;;;8.50;99.90;;;;;;5090393;28;20221;-77
2022/04/05 10:06:30;;;;;;;6.47;2.87;;;8.50;99.90;;;;;;5088913;28;20201;-77
2022/04/05 10:08:57;;;;;;;6.23;2.70;;;8.70;99.90;;;;;;5091243;28;20671;-77
2022/04/05 10:11:27;;;;;;;9.63;2.93;;;8.60;99.90;;;;;;5093353;28;20636;-77
2022/04/05 10:13:54;;;;;;;9.07;3.40;;;8.70;99.90;;;;;;5093061;28;20225;-77
2022/04/05 10:16:24;;;;;;;7.43;2.90;;;8.60;99.90;;;;;;5092841;28;20458;-78
2022/04/05 10:18:53;;;;;;;11.60;4.10;;;8.60;99.90;;;;;;5092158;28;20202;-77
2022/04/05 10:21:22;;;;;;;8.63;3.20;;;8.70;99.90;;;;;;5092406;28;20195;-76
2022/04/05 10:23:49;;;;;;;9.17;3.80;;;8.80;99.90;;;;;;5092156;28;20225;-77
2022/04/05 10:26:19;;;;;;;9.93;3.73;;;8.90;99.90;;;;;;5092869;28;20194;-77
2022/04/05 10:28:50;;;;;;;10.10;4.27;;;8.90;99.90;;;;;;5091949;28;20667;-77
2022/04/05 10:31:23;;;;;;;14.80;5.13;;;8.80;99.90;;;;;;5092334;28;20204;-77
2022/04/05 10:34:00;;;;;;;9.93;3.47;;;8.80;99.90;;;;;;5092524;28;20194;-77
2022/04/05 10:36:28;;;;;;;6.63;3.77;;;8.70;99.90;;;;;;5089376;28;20266;-78
2022/04/05 10:39:17;;;;;;;8.93;3.80;;;8.70;99.90;;;;;;5096478;28;20201;-77
2022/04/05 10:41:45;;;;;;;11.27;4.17;;;8.90;99.90;;;;;;5092086;28;20212;-77
2022/04/05 10:44:27;;;;;;;11.27;4.30;;;8.90;99.90;;;;;;5092013;28;20217;-78
2022/04/05 10:46:57;;;;;;;8.10;4.10;;;8.90;99.90;;;;;;5092225;28;20237;-78
2022/04/05 10:49:39;;;;;;;5.93;3.80;;;9.10;99.90;;;;;;5091817;28;20254;-77
2022/04/05 10:52:12;;;;;;;7.30;4.37;;;9.10;99.90;;;;;;5090771;28;20197;-77
2022/04/05 10:54:41;;;;;;;8.53;4.10;;;9.20;99.90;;;;;;5092374;28;20534;-77
2022/04/05 10:57:32;;;;;;;7.50;4.13;;;9.30;99.90;;;;;;5092085;28;20682;-78
2022/04/05 11:00:05;;;;;;;6.77;3.70;;;9.30;99.90;;;;;;5089186;28;20197;-78
2022/04/05 11:02:37;;;;;;;6.83;4.07;;;9.20;99.90;;;;;;5091900;28;20557;-77
2022/04/05 11:05:32;;;;;;;5.53;3.97;;;9.30;99.90;;;;;;5091600;28;20200;-77
2022/04/05 11:08:15;;;;;;;7.67;3.83;;;9.20;99.90;;;;;;5091992;28;20198;-77
2022/04/05 11:10:53;;;;;;;7.10;4.13;;;9.10;99.90;;;;;;5090428;28;20205;-77
2022/04/05 11:13:23;;;;;;;5.13;4.10;;;9.10;99.90;;;;;;5091686;28;20204;-77
2022/04/05 11:15:53;;;;;;;5.53;3.90;;;8.90;99.90;;;;;;5091799;28;20212;-77
2022/04/05 11:18:25;;;;;;;6.90;3.90;;;8.90;99.90;;;;;;5091453;28;20571;-77
2022/04/05 11:20:56;;;;;;;5.67;3.40;;;8.90;99.90;;;;;;5091066;28;20205;-77
2022/04/05 11:23:43;;;;;;;5.30;3.50;;;8.90;99.90;;;;;;5091317;28;20225;-77
2022/04/05 11:26:33;;;;;;;9.50;4.43;;;9.00;99.90;;;;;;5090084;28;20569;-78
2022/04/05 11:29:01;;;;;;;5.03;4.10;;;9.00;99.90;;;;;;5090322;28;20724;-77
2022/04/05 11:31:32;;;;;;;7.27;4.30;;;8.90;99.90;;;;;;5091686;28;20674;-77
2022/04/05 11:34:00;;;;;;;4.80;3.73;;;8.90;99.90;;;;;;5092012;28;20197;-77
2022/04/05 11:36:29;;;;;;;5.03;3.70;;;9.00;99.90;;;;;;5091223;28;20300;-77
2022/04/05 11:38:58;;;;;;;4.70;3.70;;;9.00;99.90;;;;;;5088352;28;20205;-77
2022/04/05 11:41:29;;;;;;;4.03;3.37;;;9.10;99.90;;;;;;5091658;28;20205;-77
2022/04/05 11:43:58;;;;;;;5.23;4.20;;;9.30;99.90;;;;;;5089945;28;20224;-77
2022/04/05 11:46:28;;;;;;;4.03;3.20;;;9.40;99.90;;;;;;5091108;28;20438;-77
2022/04/05 11:49:01;;;;;;;4.90;3.17;;;9.30;99.90;;;;;;5089387;28;20205;-77
2022/04/05 11:51:34;;;;;;;4.63;3.37;;;9.20;99.90;;;;;;5092491;28;20247;-77
2022/04/05 11:54:12;;;;;;;5.27;3.30;;;9.30;99.90;;;;;;5091412;28;20197;-77
2022/04/05 11:56:46;;;;;;;3.53;3.00;;;9.20;99.90;;;;;;5089796;28;20201;-77
2022/04/05 11:59:17;;;;;;;6.37;3.50;;;9.30;99.90;;;;;;5090492;28;20211;-77
2022/04/05 12:01:49;;;;;;;8.50;3.50;;;9.30;99.90;;;;;;5091421;28;20205;-77
2022/04/05 12:04:22;;;;;;;5.90;3.23;;;9.30;99.90;;;;;;5087144;28;20312;-77
2022/04/05 12:06:58;;;;;;;3.90;3.07;;;9.30;99.90;;;;;;5090773;28;20820;-77
2022/04/05 12:09:26;;;;;;;5.63;3.50;;;9.40;99.90;;;;;;5090559;28;20340;-77
2022/04/05 12:11:54;;;;;;;9.60;3.60;;;9.30;99.90;;;;;;5091218;28;20247;-77
2022/04/05 12:14:24;;;;;;;6.80;3.50;;;9.30;99.90;;;;;;5091110;28;20652;-76
2022/04/05 12:16:54;;;;;;;4.53;3.10;;;9.30;99.90;;;;;;5090919;28;20247;-77
2022/04/05 12:19:26;;;;;;;4.30;3.50;;;9.30;99.90;;;;;;5090151;28;20230;-77
2022/04/05 12:21:57;;;;;;;5.33;4.00;;;9.20;99.90;;;;;;5090774;28;20652;-76
2022/04/05 12:24:26;;;;;;;7.43;4.10;;;9.30;99.90;;;;;;5091314;28;20723;-76
2022/04/05 12:27:01;;;;;;;5.73;3.90;;;9.30;99.90;;;;;;5090079;28;20200;-77
2022/04/05 12:29:29;;;;;;;6.57;4.13;;;9.30;99.90;;;;;;5087337;28;20205;-77
2022/04/05 12:32:04;;;;;;;7.27;4.33;;;9.40;99.90;;;;;;5090483;28;20197;-76
2022/04/05 12:34:35;;;;;;;5.43;3.13;;;9.40;99.90;;;;;;5089127;28;20530;-77
2022/04/05 12:37:05;;;;;;;5.20;3.60;;;9.40;99.90;;;;;;5091013;28;20292;-76
2022/04/05 12:39:42;;;;;;;6.60;3.70;;;9.40;99.90;;;;;;5090346;28;20241;-77
2022/04/05 12:42:12;;;;;;;5.00;3.60;;;9.40;99.90;;;;;;5086855;28;20631;-76
2022/04/05 12:44:40;;;;;;;7.63;3.90;;;9.30;99.90;;;;;;5090018;28;20224;-76
2022/04/05 12:47:15;;;;;;;4.37;3.17;;;9.40;99.90;;;;;;5090225;28;20202;-77
2022/04/05 12:49:49;;;;;;;6.13;3.87;;;9.40;99.90;;;;;;5087909;28;20300;-77
2022/04/05 12:52:29;;;;;;;6.37;3.70;;;9.50;99.90;;;;;;5090080;28;20301;-77
2022/04/05 12:55:00;;;;;;;4.63;3.00;;;9.50;99.90;;;;;;5090227;28;20204;-77
2022/04/05 12:57:32;;;;;;;5.93;4.10;;;9.40;99.90;;;;;;5089890;28;20208;-77
2022/04/05 13:00:15;;;;;;;3.90;3.17;;;9.40;99.90;;;;;;5089280;28;20202;-77
2022/04/05 13:02:44;;;;;;;4.07;3.37;;;9.30;99.90;;;;;;5091789;28;20215;-77
2022/04/05 13:07:59;;;;;;;4.27;3.20;;;9.40;99.90;;;;;;5091009;28;20201;-77